This is the latest recevied weather packets stored in our database for station/object WMKM. If no packets are shown the sender has not sent any weather packets the latest 10 day(s).
| Time | Temp. | Humidity | Pressure | Rain* | Wind** | Luminosity | Snow |
|---|---|---|---|---|---|---|---|
| 1777821046 | 25° C | 88% | 1010 hPa | - | - | - | - |
| 1777817438 | 25° C | 88% | 1010 hPa | - | - | - | - |
| 1777813838 | 25° C | 94% | 1009 hPa | - | - | - | - |
| 1777806644 | 25° C | 88% | 1008 hPa | - | - | - | - |
| 1777803041 | 28.89° C | 74% | 1007 hPa | - | - | - | - |
| 1777799440 | 31.67° C | 62% | 1006 hPa | - | - | - | - |
| 1777795858 | 31.67° C | 66% | 1006 hPa | - | - | - | - |
| 1777792242 | 31.67° C | 66% | 1007 hPa | - | - | - | - |
| 1777788641 | 31.67° C | 62% | 1008 hPa | - | - | - | - |
| 1777785040 | 32.78° C | 59% | 1009 hPa | - | - | - | - |
| 1777781457 | 31.67° C | 62% | 1010 hPa | - | - | - | - |
| 1777777841 | 31.67° C | 62% | 1011 hPa | - | - | - | - |
| 1777774245 | 30° C | 74% | 1010 hPa | - | - | - | - |
| 1777770640 | 27.78° C | 78% | 1010 hPa | - | - | - | - |
| 1777767057 | 25.56° C | 88% | 1009 hPa | - | - | - | - |
| 1777759840 | 25° C | 88% | 1007 hPa | - | - | - | - |
| 1777756239 | 25° C | 88% | 1008 hPa | - | - | - | - |
| 1777752639 | 25° C | 88% | 1008 hPa | - | - | - | - |
| 1777749060 | 25° C | 88% | 1008 hPa | - | - | - | - |
| 1777745439 | 25.56° C | 88% | 1009 hPa | - | - | - | - |
| 1777741838 | 25.56° C | 88% | 1009 hPa | - | - | - | - |
| 1777740639 | 25.56° C | 88% | 1010 hPa | - | - | - | - |
| 1777740054 | 24.44° C | 98% | 1010.7 hPa | - | - | - | - |
| 1777738239 | 25.56° C | 88% | 1010 hPa | - | - | - | - |
| 1777734639 | 25.56° C | 88% | 1010 hPa | - | - | - | - |
* Rain since midnight (hover to see other rain measurements)
** Current wind speed in m/s (hover to see current wind gust speed)